sensor_id;sensor_type;location;lat;lon;timestamp;P1;P2;P0
51052;PMS5003;37093;37.716;-122.060;2023-09-19T00:01:38;7;6;
51052;PMS5003;37093;37.716;-122.060;2023-09-19T00:04:06;5;5;
51052;PMS5003;37093;37.716;-122.060;2023-09-19T00:06:35;5;5;
51052;PMS5003;37093;37.716;-122.060;2023-09-19T00:09:03;5;5;
51052;PMS5003;37093;37.716;-122.060;2023-09-19T00:11:32;3;3;
51052;PMS5003;37093;37.716;-122.060;2023-09-19T00:14:00;4;4;
51052;PMS5003;37093;37.716;-122.060;2023-09-19T00:16:28;4;4;
51052;PMS5003;37093;37.716;-122.060;2023-09-19T00:18:57;5;4;
51052;PMS5003;37093;37.716;-122.060;2023-09-19T00:21:26;4;4;
51052;PMS5003;37093;37.716;-122.060;2023-09-19T00:23:54;7;7;
51052;PMS5003;37093;37.716;-122.060;2023-09-19T00:26:22;5;5;
51052;PMS5003;37093;37.716;-122.060;2023-09-19T00:28:52;3;3;
51052;PMS5003;37093;37.716;-122.060;2023-09-19T00:31:20;5;5;
51052;PMS5003;37093;37.716;-122.060;2023-09-19T00:33:48;6;6;
51052;PMS5003;37093;37.716;-122.060;2023-09-19T00:36:18;9;6;
51052;PMS5003;37093;37.716;-122.060;2023-09-19T00:38:46;8;7;
51052;PMS5003;37093;37.716;-122.060;2023-09-19T00:41:14;9;7;
51052;PMS5003;37093;37.716;-122.060;2023-09-19T00:43:43;6;4;
51052;PMS5003;37093;37.716;-122.060;2023-09-19T00:46:11;3;3;
51052;PMS5003;37093;37.716;-122.060;2023-09-19T00:48:40;5;5;
51052;PMS5003;37093;37.716;-122.060;2023-09-19T00:51:09;7;7;
51052;PMS5003;37093;37.716;-122.060;2023-09-19T00:53:39;6;5;
51052;PMS5003;37093;37.716;-122.060;2023-09-19T00:56:07;7;5;
51052;PMS5003;37093;37.716;-122.060;2023-09-19T00:58:36;7;6;
51052;PMS5003;37093;37.716;-122.060;2023-09-19T01:01:04;9;6;
51052;PMS5003;37093;37.716;-122.060;2023-09-19T01:03:33;8;5;
51052;PMS5003;37093;37.716;-122.060;2023-09-19T01:06:01;10;8;
51052;PMS5003;37093;37.716;-122.060;2023-09-19T01:08:30;8;7;
51052;PMS5003;37093;37.716;-122.060;2023-09-19T01:10:59;8;6;
51052;PMS5003;37093;37.716;-122.060;2023-09-19T01:13:35;6;5;
51052;PMS5003;37093;37.716;-122.060;2023-09-19T01:16:15;5;5;
51052;PMS5003;37093;37.716;-122.060;2023-09-19T01:18:52;4;4;
51052;PMS5003;37093;37.716;-122.060;2023-09-19T01:21:28;4;4;
51052;PMS5003;37093;37.716;-122.060;2023-09-19T01:24:10;6;6;
51052;PMS5003;37093;37.716;-122.060;2023-09-19T01:27:11;7;6;
51052;PMS5003;37093;37.716;-122.060;2023-09-19T01:32:29;10;8;
51052;PMS5003;37093;37.716;-122.060;2023-09-19T01:34:57;7;6;
51052;PMS5003;37093;37.716;-122.060;2023-09-19T01:37:26;3;3;
51052;PMS5003;37093;37.716;-122.060;2023-09-19T01:39:55;8;7;
51052;PMS5003;37093;37.716;-122.060;2023-09-19T01:42:31;8;6;
51052;PMS5003;37093;37.716;-122.060;2023-09-19T01:45:07;7;6;
51052;PMS5003;37093;37.716;-122.060;2023-09-19T01:47:41;6;6;
51052;PMS5003;37093;37.716;-122.060;2023-09-19T01:50:20;10;6;
51052;PMS5003;37093;37.716;-122.060;2023-09-19T01:52:57;7;6;
51052;PMS5003;37093;37.716;-122.060;2023-09-19T01:55:34;5;5;
51052;PMS5003;37093;37.716;-122.060;2023-09-19T01:58:12;6;5;
51052;PMS5003;37093;37.716;-122.060;2023-09-19T02:00:44;10;6;
51052;PMS5003;37093;37.716;-122.060;2023-09-19T02:03:17;6;6;
51052;PMS5003;37093;37.716;-122.060;2023-09-19T02:05:48;4;4;
51052;PMS5003;37093;37.716;-122.060;2023-09-19T02:08:17;8;7;
51052;PMS5003;37093;37.716;-122.060;2023-09-19T02:10:47;8;7;
51052;PMS5003;37093;37.716;-122.060;2023-09-19T02:13:16;6;6;
51052;PMS5003;37093;37.716;-122.060;2023-09-19T02:15:45;5;5;
51052;PMS5003;37093;37.716;-122.060;2023-09-19T02:18:13;9;7;
51052;PMS5003;37093;37.716;-122.060;2023-09-19T02:20:42;9;7;
51052;PMS5003;37093;37.716;-122.060;2023-09-19T02:23:11;9;9;
51052;PMS5003;37093;37.716;-122.060;2023-09-19T02:25:40;8;7;
51052;PMS5003;37093;37.716;-122.060;2023-09-19T02:28:08;9;8;
51052;PMS5003;37093;37.716;-122.060;2023-09-19T02:30:36;6;6;
51052;PMS5003;37093;37.716;-122.060;2023-09-19T02:33:05;9;6;
51052;PMS5003;37093;37.716;-122.060;2023-09-19T02:35:33;11;8;
51052;PMS5003;37093;37.716;-122.060;2023-09-19T02:38:02;12;10;
51052;PMS5003;37093;37.716;-122.060;2023-09-19T02:40:30;10;8;
51052;PMS5003;37093;37.716;-122.060;2023-09-19T02:42:58;9;8;
51052;PMS5003;37093;37.716;-122.060;2023-09-19T02:45:27;11;9;
51052;PMS5003;37093;37.716;-122.060;2023-09-19T02:47:56;16;9;
51052;PMS5003;37093;37.716;-122.060;2023-09-19T02:50:25;11;9;
51052;PMS5003;37093;37.716;-122.060;2023-09-19T02:52:53;11;10;
51052;PMS5003;37093;37.716;-122.060;2023-09-19T02:55:21;17;8;
51052;PMS5003;37093;37.716;-122.060;2023-09-19T02:57:51;10;8;
51052;PMS5003;37093;37.716;-122.060;2023-09-19T03:00:20;9;9;
51052;PMS5003;37093;37.716;-122.060;2023-09-19T03:02:50;8;8;
51052;PMS5003;37093;37.716;-122.060;2023-09-19T03:05:20;8;8;
51052;PMS5003;37093;37.716;-122.060;2023-09-19T03:07:48;8;8;
51052;PMS5003;37093;37.716;-122.060;2023-09-19T03:10:17;11;7;
51052;PMS5003;37093;37.716;-122.060;2023-09-19T03:12:45;8;7;
51052;PMS5003;37093;37.716;-122.060;2023-09-19T03:15:14;10;8;
51052;PMS5003;37093;37.716;-122.060;2023-09-19T03:17:43;11;8;
51052;PMS5003;37093;37.716;-122.060;2023-09-19T03:20:12;12;9;
51052;PMS5003;37093;37.716;-122.060;2023-09-19T03:22:41;9;9;
51052;PMS5003;37093;37.716;-122.060;2023-09-19T03:25:09;9;9;
51052;PMS5003;37093;37.716;-122.060;2023-09-19T03:27:37;7;7;
51052;PMS5003;37093;37.716;-122.060;2023-09-19T03:30:07;9;9;
51052;PMS5003;37093;37.716;-122.060;2023-09-19T03:32:35;12;9;
51052;PMS5003;37093;37.716;-122.060;2023-09-19T03:35:04;10;8;
51052;PMS5003;37093;37.716;-122.060;2023-09-19T03:37:33;10;9;
51052;PMS5003;37093;37.716;-122.060;2023-09-19T03:40:02;7;7;
51052;PMS5003;37093;37.716;-122.060;2023-09-19T03:42:30;7;6;
51052;PMS5003;37093;37.716;-122.060;2023-09-19T03:44:58;12;10;
51052;PMS5003;37093;37.716;-122.060;2023-09-19T03:47:27;9;7;
51052;PMS5003;37093;37.716;-122.060;2023-09-19T03:49:56;6;6;
51052;PMS5003;37093;37.716;-122.060;2023-09-19T03:52:24;10;10;
51052;PMS5003;37093;37.716;-122.060;2023-09-19T03:54:53;10;7;
51052;PMS5003;37093;37.716;-122.060;2023-09-19T03:57:21;10;9;
51052;PMS5003;37093;37.716;-122.060;2023-09-19T03:59:50;8;8;
51052;PMS5003;37093;37.716;-122.060;2023-09-19T04:02:18;10;9;
51052;PMS5003;37093;37.716;-122.060;2023-09-19T04:04:46;9;8;
51052;PMS5003;37093;37.716;-122.060;2023-09-19T04:07:15;8;7;
51052;PMS5003;37093;37.716;-122.060;2023-09-19T04:09:43;11;9;
51052;PMS5003;37093;37.716;-122.060;2023-09-19T04:12:12;12;9;
51052;PMS5003;37093;37.716;-122.060;2023-09-19T04:14:40;9;8;
51052;PMS5003;37093;37.716;-122.060;2023-09-19T04:17:09;13;11;
51052;PMS5003;37093;37.716;-122.060;2023-09-19T04:19:37;13;9;
51052;PMS5003;37093;37.716;-122.060;2023-09-19T04:22:06;9;9;
51052;PMS5003;37093;37.716;-122.060;2023-09-19T04:24:34;12;9;
51052;PMS5003;37093;37.716;-122.060;2023-09-19T04:27:03;14;12;
51052;PMS5003;37093;37.716;-122.060;2023-09-19T04:29:31;11;10;
51052;PMS5003;37093;37.716;-122.060;2023-09-19T04:32:00;16;12;
51052;PMS5003;37093;37.716;-122.060;2023-09-19T04:34:28;13;10;
51052;PMS5003;37093;37.716;-122.060;2023-09-19T04:36:57;10;9;
51052;PMS5003;37093;37.716;-122.060;2023-09-19T04:39:25;14;10;
51052;PMS5003;37093;37.716;-122.060;2023-09-19T04:41:54;7;7;
51052;PMS5003;37093;37.716;-122.060;2023-09-19T04:44:22;10;10;
51052;PMS5003;37093;37.716;-122.060;2023-09-19T04:46:51;7;7;
51052;PMS5003;37093;37.716;-122.060;2023-09-19T04:49:19;9;8;
51052;PMS5003;37093;37.716;-122.060;2023-09-19T04:51:48;13;11;
51052;PMS5003;37093;37.716;-122.060;2023-09-19T04:54:16;14;13;
51052;PMS5003;37093;37.716;-122.060;2023-09-19T04:56:45;12;10;
51052;PMS5003;37093;37.716;-122.060;2023-09-19T04:59:12;11;9;
51052;PMS5003;37093;37.716;-122.060;2023-09-19T05:01:41;11;11;
51052;PMS5003;37093;37.716;-122.060;2023-09-19T05:04:10;15;13;
51052;PMS5003;37093;37.716;-122.060;2023-09-19T05:06:37;16;10;
51052;PMS5003;37093;37.716;-122.060;2023-09-19T05:09:06;9;9;
51052;PMS5003;37093;37.716;-122.060;2023-09-19T05:11:34;11;11;
51052;PMS5003;37093;37.716;-122.060;2023-09-19T05:14:03;12;10;
51052;PMS5003;37093;37.716;-122.060;2023-09-19T05:16:31;12;11;
51052;PMS5003;37093;37.716;-122.060;2023-09-19T05:19:00;14;14;
51052;PMS5003;37093;37.716;-122.060;2023-09-19T05:21:29;14;11;
51052;PMS5003;37093;37.716;-122.060;2023-09-19T05:23:57;14;12;
51052;PMS5003;37093;37.716;-122.060;2023-09-19T05:26:26;17;11;
51052;PMS5003;37093;37.716;-122.060;2023-09-19T05:28:54;15;12;
51052;PMS5003;37093;37.716;-122.060;2023-09-19T05:31:23;18;15;
51052;PMS5003;37093;37.716;-122.060;2023-09-19T05:33:51;21;13;
51052;PMS5003;37093;37.716;-122.060;2023-09-19T05:36:19;14;12;
51052;PMS5003;37093;37.716;-122.060;2023-09-19T05:38:48;12;11;
51052;PMS5003;37093;37.716;-122.060;2023-09-19T05:41:16;12;11;
51052;PMS5003;37093;37.716;-122.060;2023-09-19T05:43:45;15;12;
51052;PMS5003;37093;37.716;-122.060;2023-09-19T05:46:15;11;11;
51052;PMS5003;37093;37.716;-122.060;2023-09-19T05:48:43;13;10;
51052;PMS5003;37093;37.716;-122.060;2023-09-19T05:51:11;15;11;
51052;PMS5003;37093;37.716;-122.060;2023-09-19T05:53:39;17;15;
51052;PMS5003;37093;37.716;-122.060;2023-09-19T05:56:08;15;12;
51052;PMS5003;37093;37.716;-122.060;2023-09-19T05:58:36;19;15;
51052;PMS5003;37093;37.716;-122.060;2023-09-19T06:01:04;13;11;
51052;PMS5003;37093;37.716;-122.060;2023-09-19T06:03:33;14;12;
51052;PMS5003;37093;37.716;-122.060;2023-09-19T06:06:01;13;13;
51052;PMS5003;37093;37.716;-122.060;2023-09-19T06:25:11;13;12;
51052;PMS5003;37093;37.716;-122.060;2023-09-19T06:27:40;12;8;
51052;PMS5003;37093;37.716;-122.060;2023-09-19T06:30:08;13;10;
51052;PMS5003;37093;37.716;-122.060;2023-09-19T06:32:37;9;9;
51052;PMS5003;37093;37.716;-122.060;2023-09-19T06:35:05;18;13;
51052;PMS5003;37093;37.716;-122.060;2023-09-19T06:37:34;23;14;
51052;PMS5003;37093;37.716;-122.060;2023-09-19T06:40:03;9;9;
51052;PMS5003;37093;37.716;-122.060;2023-09-19T06:42:33;16;13;
51052;PMS5003;37093;37.716;-122.060;2023-09-19T06:45:01;11;8;
51052;PMS5003;37093;37.716;-122.060;2023-09-19T06:47:30;13;11;
51052;PMS5003;37093;37.716;-122.060;2023-09-19T06:49:58;20;12;
51052;PMS5003;37093;37.716;-122.060;2023-09-19T06:52:25;15;13;
51052;PMS5003;37093;37.716;-122.060;2023-09-19T06:54:54;13;12;
51052;PMS5003;37093;37.716;-122.060;2023-09-19T06:57:22;12;12;
51052;PMS5003;37093;37.716;-122.060;2023-09-19T06:59:51;17;11;
51052;PMS5003;37093;37.716;-122.060;2023-09-19T07:01:10;11;10;
51052;PMS5003;37093;37.716;-122.060;2023-09-19T07:03:39;10;10;
51052;PMS5003;37093;37.716;-122.060;2023-09-19T07:06:08;14;13;
51052;PMS5003;37093;37.716;-122.060;2023-09-19T07:08:36;12;11;
51052;PMS5003;37093;37.716;-122.060;2023-09-19T07:11:04;20;13;
51052;PMS5003;37093;37.716;-122.060;2023-09-19T07:13:33;10;10;
51052;PMS5003;37093;37.716;-122.060;2023-09-19T07:16:01;11;10;
51052;PMS5003;37093;37.716;-122.060;2023-09-19T07:18:29;15;14;
51052;PMS5003;37093;37.716;-122.060;2023-09-19T07:20:58;13;11;
51052;PMS5003;37093;37.716;-122.060;2023-09-19T07:23:26;15;12;
51052;PMS5003;37093;37.716;-122.060;2023-09-19T07:25:56;23;13;
51052;PMS5003;37093;37.716;-122.060;2023-09-19T07:28:24;13;12;
51052;PMS5003;37093;37.716;-122.060;2023-09-19T07:30:53;9;8;
51052;PMS5003;37093;37.716;-122.060;2023-09-19T07:33:21;26;15;
51052;PMS5003;37093;37.716;-122.060;2023-09-19T07:35:49;17;15;
51052;PMS5003;37093;37.716;-122.060;2023-09-19T07:38:17;14;12;
51052;PMS5003;37093;37.716;-122.060;2023-09-19T07:40:45;14;10;
51052;PMS5003;37093;37.716;-122.060;2023-09-19T07:43:13;14;14;
51052;PMS5003;37093;37.716;-122.060;2023-09-19T07:45:42;15;14;
51052;PMS5003;37093;37.716;-122.060;2023-09-19T07:48:10;16;15;
51052;PMS5003;37093;37.716;-122.060;2023-09-19T07:50:38;20;13;
51052;PMS5003;37093;37.716;-122.060;2023-09-19T07:53:06;16;10;
51052;PMS5003;37093;37.716;-122.060;2023-09-19T07:55:35;12;10;
51052;PMS5003;37093;37.716;-122.060;2023-09-19T07:58:03;16;13;
51052;PMS5003;37093;37.716;-122.060;2023-09-19T08:00:32;13;13;
51052;PMS5003;37093;37.716;-122.060;2023-09-19T08:03:00;14;11;
51052;PMS5003;37093;37.716;-122.060;2023-09-19T08:05:29;10;9;
51052;PMS5003;37093;37.716;-122.060;2023-09-19T08:07:58;10;10;
51052;PMS5003;37093;37.716;-122.060;2023-09-19T08:10:27;14;12;
51052;PMS5003;37093;37.716;-122.060;2023-09-19T08:12:55;18;12;
51052;PMS5003;37093;37.716;-122.060;2023-09-19T08:15:24;21;13;
51052;PMS5003;37093;37.716;-122.060;2023-09-19T08:17:53;18;12;
51052;PMS5003;37093;37.716;-122.060;2023-09-19T08:20:21;11;10;
51052;PMS5003;37093;37.716;-122.060;2023-09-19T08:22:50;16;12;
51052;PMS5003;37093;37.716;-122.060;2023-09-19T08:25:20;15;13;
51052;PMS5003;37093;37.716;-122.060;2023-09-19T08:27:49;16;13;
51052;PMS5003;37093;37.716;-122.060;2023-09-19T08:30:19;14;13;
51052;PMS5003;37093;37.716;-122.060;2023-09-19T08:32:48;14;12;
51052;PMS5003;37093;37.716;-122.060;2023-09-19T08:35:17;13;12;
51052;PMS5003;37093;37.716;-122.060;2023-09-19T08:37:45;12;12;
51052;PMS5003;37093;37.716;-122.060;2023-09-19T08:40:13;11;10;
51052;PMS5003;37093;37.716;-122.060;2023-09-19T08:42:49;19;15;
51052;PMS5003;37093;37.716;-122.060;2023-09-19T08:45:18;18;14;
51052;PMS5003;37093;37.716;-122.060;2023-09-19T08:47:46;13;10;
51052;PMS5003;37093;37.716;-122.060;2023-09-19T08:50:26;25;12;
51052;PMS5003;37093;37.716;-122.060;2023-09-19T08:52:56;18;15;
51052;PMS5003;37093;37.716;-122.060;2023-09-19T08:55:29;15;11;
51052;PMS5003;37093;37.716;-122.060;2023-09-19T08:57:59;20;14;
51052;PMS5003;37093;37.716;-122.060;2023-09-19T09:00:30;14;12;
51052;PMS5003;37093;37.716;-122.060;2023-09-19T09:02:59;13;12;
51052;PMS5003;37093;37.716;-122.060;2023-09-19T09:05:29;18;15;
51052;PMS5003;37093;37.716;-122.060;2023-09-19T09:07:59;21;15;
51052;PMS5003;37093;37.716;-122.060;2023-09-19T09:10:28;15;12;
51052;PMS5003;37093;37.716;-122.060;2023-09-19T09:12:57;12;12;
51052;PMS5003;37093;37.716;-122.060;2023-09-19T09:15:26;17;15;
51052;PMS5003;37093;37.716;-122.060;2023-09-19T09:17:56;20;16;
51052;PMS5003;37093;37.716;-122.060;2023-09-19T09:20:24;28;15;
51052;PMS5003;37093;37.716;-122.060;2023-09-19T09:22:52;17;13;
51052;PMS5003;37093;37.716;-122.060;2023-09-19T09:25:22;24;14;
51052;PMS5003;37093;37.716;-122.060;2023-09-19T09:28:18;19;16;
51052;PMS5003;37093;37.716;-122.060;2023-09-19T09:30:48;21;18;
51052;PMS5003;37093;37.716;-122.060;2023-09-19T09:33:17;20;18;
51052;PMS5003;37093;37.716;-122.060;2023-09-19T09:35:49;20;17;
51052;PMS5003;37093;37.716;-122.060;2023-09-19T09:38:19;18;14;
51052;PMS5003;37093;37.716;-122.060;2023-09-19T09:40:48;17;13;
51052;PMS5003;37093;37.716;-122.060;2023-09-19T09:43:25;27;20;
51052;PMS5003;37093;37.716;-122.060;2023-09-19T09:46:11;16;13;
51052;PMS5003;37093;37.716;-122.060;2023-09-19T09:48:41;16;12;
51052;PMS5003;37093;37.716;-122.060;2023-09-19T09:51:09;22;14;
51052;PMS5003;37093;37.716;-122.060;2023-09-19T09:53:38;19;17;
51052;PMS5003;37093;37.716;-122.060;2023-09-19T09:56:07;15;14;
51052;PMS5003;37093;37.716;-122.060;2023-09-19T09:58:36;17;14;
51052;PMS5003;37093;37.716;-122.060;2023-09-19T10:01:05;19;14;
51052;PMS5003;37093;37.716;-122.060;2023-09-19T10:03:33;14;13;
51052;PMS5003;37093;37.716;-122.060;2023-09-19T10:06:06;14;13;
51052;PMS5003;37093;37.716;-122.060;2023-09-19T10:08:34;12;11;
51052;PMS5003;37093;37.716;-122.060;2023-09-19T10:11:15;14;12;
51052;PMS5003;37093;37.716;-122.060;2023-09-19T10:13:44;24;17;
51052;PMS5003;37093;37.716;-122.060;2023-09-19T10:16:13;14;10;
51052;PMS5003;37093;37.716;-122.060;2023-09-19T10:18:43;19;17;
51052;PMS5003;37093;37.716;-122.060;2023-09-19T10:21:12;23;13;
51052;PMS5003;37093;37.716;-122.060;2023-09-19T10:23:40;17;16;
51052;PMS5003;37093;37.716;-122.060;2023-09-19T10:26:10;16;12;
51052;PMS5003;37093;37.716;-122.060;2023-09-19T10:28:43;19;17;
51052;PMS5003;37093;37.716;-122.060;2023-09-19T10:31:17;28;13;
51052;PMS5003;37093;37.716;-122.060;2023-09-19T10:33:47;20;15;
51052;PMS5003;37093;37.716;-122.060;2023-09-19T10:36:18;21;16;
51052;PMS5003;37093;37.716;-122.060;2023-09-19T10:38:48;31;17;
51052;PMS5003;37093;37.716;-122.060;2023-09-19T10:41:20;14;14;
51052;PMS5003;37093;37.716;-122.060;2023-09-19T10:43:49;23;15;
51052;PMS5003;37093;37.716;-122.060;2023-09-19T10:46:21;17;14;
51052;PMS5003;37093;37.716;-122.060;2023-09-19T10:48:49;13;12;
51052;PMS5003;37093;37.716;-122.060;2023-09-19T10:51:19;28;17;
51052;PMS5003;37093;37.716;-122.060;2023-09-19T10:53:52;24;16;
51052;PMS5003;37093;37.716;-122.060;2023-09-19T10:56:24;26;15;
51052;PMS5003;37093;37.716;-122.060;2023-09-19T10:59:05;20;19;
51052;PMS5003;37093;37.716;-122.060;2023-09-19T11:01:42;17;14;
51052;PMS5003;37093;37.716;-122.060;2023-09-19T11:04:28;19;14;
51052;PMS5003;37093;37.716;-122.060;2023-09-19T11:07:00;20;20;
51052;PMS5003;37093;37.716;-122.060;2023-09-19T11:09:48;15;14;
51052;PMS5003;37093;37.716;-122.060;2023-09-19T11:12:49;26;18;
51052;PMS5003;37093;37.716;-122.060;2023-09-19T11:16:03;20;15;
51052;PMS5003;37093;37.716;-122.060;2023-09-19T11:19:04;25;14;
51052;PMS5003;37093;37.716;-122.060;2023-09-19T11:21:40;22;16;
51052;PMS5003;37093;37.716;-122.060;2023-09-19T11:24:34;25;17;
51052;PMS5003;37093;37.716;-122.060;2023-09-19T11:27:11;21;16;
51052;PMS5003;37093;37.716;-122.060;2023-09-19T11:29:41;17;13;
51052;PMS5003;37093;37.716;-122.060;2023-09-19T11:32:09;29;14;
51052;PMS5003;37093;37.716;-122.060;2023-09-19T11:34:41;31;16;
51052;PMS5003;37093;37.716;-122.060;2023-09-19T11:38:15;21;17;
51052;PMS5003;37093;37.716;-122.060;2023-09-19T11:40:46;22;15;
51052;PMS5003;37093;37.716;-122.060;2023-09-19T11:44:36;15;14;
51052;PMS5003;37093;37.716;-122.060;2023-09-19T11:47:05;13;11;
51052;PMS5003;37093;37.716;-122.060;2023-09-19T11:49:35;28;15;
51052;PMS5003;37093;37.716;-122.060;2023-09-19T11:52:08;20;17;
51052;PMS5003;37093;37.716;-122.060;2023-09-19T11:54:39;18;15;
51052;PMS5003;37093;37.716;-122.060;2023-09-19T11:57:08;23;16;
51052;PMS5003;37093;37.716;-122.060;2023-09-19T11:59:38;19;15;
51052;PMS5003;37093;37.716;-122.060;2023-09-19T12:02:07;18;13;
51052;PMS5003;37093;37.716;-122.060;2023-09-19T12:04:39;19;15;
51052;PMS5003;37093;37.716;-122.060;2023-09-19T12:07:10;20;15;
51052;PMS5003;37093;37.716;-122.060;2023-09-19T12:09:40;26;19;
51052;PMS5003;37093;37.716;-122.060;2023-09-19T12:12:09;32;19;
51052;PMS5003;37093;37.716;-122.060;2023-09-19T12:14:37;16;15;
51052;PMS5003;37093;37.716;-122.060;2023-09-19T12:17:05;21;18;
51052;PMS5003;37093;37.716;-122.060;2023-09-19T12:19:34;26;16;
51052;PMS5003;37093;37.716;-122.060;2023-09-19T12:22:02;19;17;
51052;PMS5003;37093;37.716;-122.060;2023-09-19T12:24:31;17;13;
51052;PMS5003;37093;37.716;-122.060;2023-09-19T12:27:01;26;17;
51052;PMS5003;37093;37.716;-122.060;2023-09-19T12:29:31;23;17;
51052;PMS5003;37093;37.716;-122.060;2023-09-19T12:32:08;19;16;
51052;PMS5003;37093;37.716;-122.060;2023-09-19T12:34:37;20;17;
51052;PMS5003;37093;37.716;-122.060;2023-09-19T12:37:07;17;15;
51052;PMS5003;37093;37.716;-122.060;2023-09-19T12:39:36;20;17;
51052;PMS5003;37093;37.716;-122.060;2023-09-19T12:42:05;27;17;
51052;PMS5003;37093;37.716;-122.060;2023-09-19T12:44:35;36;18;
51052;PMS5003;37093;37.716;-122.060;2023-09-19T12:47:11;29;17;
51052;PMS5003;37093;37.716;-122.060;2023-09-19T12:50:12;21;17;
51052;PMS5003;37093;37.716;-122.060;2023-09-19T12:52:42;20;17;
51052;PMS5003;37093;37.716;-122.060;2023-09-19T12:55:28;23;21;
51052;PMS5003;37093;37.716;-122.060;2023-09-19T12:58:07;21;19;
51052;PMS5003;37093;37.716;-122.060;2023-09-19T13:00:39;22;16;
51052;PMS5003;37093;37.716;-122.060;2023-09-19T13:03:11;31;20;
51052;PMS5003;37093;37.716;-122.060;2023-09-19T13:05:57;18;16;
51052;PMS5003;37093;37.716;-122.060;2023-09-19T13:08:27;25;22;
51052;PMS5003;37093;37.716;-122.060;2023-09-19T13:11:06;19;15;
51052;PMS5003;37093;37.716;-122.060;2023-09-19T13:13:37;15;14;
51052;PMS5003;37093;37.716;-122.060;2023-09-19T13:16:06;24;16;
51052;PMS5003;37093;37.716;-122.060;2023-09-19T13:18:43;27;16;
51052;PMS5003;37093;37.716;-122.060;2023-09-19T13:21:13;21;15;
51052;PMS5003;37093;37.716;-122.060;2023-09-19T13:23:42;22;16;
51052;PMS5003;37093;37.716;-122.060;2023-09-19T13:26:11;21;17;
51052;PMS5003;37093;37.716;-122.060;2023-09-19T13:28:40;29;19;
51052;PMS5003;37093;37.716;-122.060;2023-09-19T13:31:09;15;14;
51052;PMS5003;37093;37.716;-122.060;2023-09-19T13:33:42;16;13;
51052;PMS5003;37093;37.716;-122.060;2023-09-19T13:36:11;19;17;
51052;PMS5003;37093;37.716;-122.060;2023-09-19T13:38:39;19;17;
51052;PMS5003;37093;37.716;-122.060;2023-09-19T13:41:08;21;15;
51052;PMS5003;37093;37.716;-122.060;2023-09-19T13:43:37;19;16;
51052;PMS5003;37093;37.716;-122.060;2023-09-19T13:46:05;17;14;
51052;PMS5003;37093;37.716;-122.060;2023-09-19T13:48:33;32;16;
51052;PMS5003;37093;37.716;-122.060;2023-09-19T13:51:02;22;11;
51052;PMS5003;37093;37.716;-122.060;2023-09-19T13:53:30;16;13;
51052;PMS5003;37093;37.716;-122.060;2023-09-19T13:55:59;20;15;
51052;PMS5003;37093;37.716;-122.060;2023-09-19T13:58:27;19;17;
51052;PMS5003;37093;37.716;-122.060;2023-09-19T14:00:56;19;16;
51052;PMS5003;37093;37.716;-122.060;2023-09-19T14:03:25;23;16;
51052;PMS5003;37093;37.716;-122.060;2023-09-19T14:05:53;20;17;
51052;PMS5003;37093;37.716;-122.060;2023-09-19T14:08:21;15;15;
51052;PMS5003;37093;37.716;-122.060;2023-09-19T14:10:50;22;17;
51052;PMS5003;37093;37.716;-122.060;2023-09-19T14:13:19;15;12;
51052;PMS5003;37093;37.716;-122.060;2023-09-19T14:15:48;16;15;
51052;PMS5003;37093;37.716;-122.060;2023-09-19T14:18:16;21;18;
51052;PMS5003;37093;37.716;-122.060;2023-09-19T14:20:44;19;16;
51052;PMS5003;37093;37.716;-122.060;2023-09-19T14:23:13;24;19;
51052;PMS5003;37093;37.716;-122.060;2023-09-19T14:25:41;34;17;
51052;PMS5003;37093;37.716;-122.060;2023-09-19T14:28:09;19;15;
51052;PMS5003;37093;37.716;-122.060;2023-09-19T14:30:37;21;18;
51052;PMS5003;37093;37.716;-122.060;2023-09-19T14:33:06;20;16;
51052;PMS5003;37093;37.716;-122.060;2023-09-19T14:35:36;22;16;
51052;PMS5003;37093;37.716;-122.060;2023-09-19T14:38:04;32;16;
51052;PMS5003;37093;37.716;-122.060;2023-09-19T14:40:33;22;16;
51052;PMS5003;37093;37.716;-122.060;2023-09-19T14:43:01;33;20;
51052;PMS5003;37093;37.716;-122.060;2023-09-19T14:45:30;20;16;
51052;PMS5003;37093;37.716;-122.060;2023-09-19T14:47:58;25;17;
51052;PMS5003;37093;37.716;-122.060;2023-09-19T14:50:26;15;14;
51052;PMS5003;37093;37.716;-122.060;2023-09-19T14:52:54;22;16;
51052;PMS5003;37093;37.716;-122.060;2023-09-19T14:55:23;18;16;
51052;PMS5003;37093;37.716;-122.060;2023-09-19T14:57:51;32;19;
51052;PMS5003;37093;37.716;-122.060;2023-09-19T15:00:19;17;16;
51052;PMS5003;37093;37.716;-122.060;2023-09-19T15:02:47;22;17;
51052;PMS5003;37093;37.716;-122.060;2023-09-19T15:05:15;20;17;
51052;PMS5003;37093;37.716;-122.060;2023-09-19T15:07:44;22;18;
51052;PMS5003;37093;37.716;-122.060;2023-09-19T15:10:12;29;18;
51052;PMS5003;37093;37.716;-122.060;2023-09-19T15:12:41;22;19;
51052;PMS5003;37093;37.716;-122.060;2023-09-19T15:15:10;24;18;
51052;PMS5003;37093;37.716;-122.060;2023-09-19T15:17:39;22;19;
51052;PMS5003;37093;37.716;-122.060;2023-09-19T15:20:07;21;18;
51052;PMS5003;37093;37.716;-122.060;2023-09-19T15:22:36;29;18;
51052;PMS5003;37093;37.716;-122.060;2023-09-19T15:25:04;22;17;
51052;PMS5003;37093;37.716;-122.060;2023-09-19T15:27:33;31;19;
51052;PMS5003;37093;37.716;-122.060;2023-09-19T15:30:01;22;18;
51052;PMS5003;37093;37.716;-122.060;2023-09-19T15:32:30;27;19;
51052;PMS5003;37093;37.716;-122.060;2023-09-19T15:34:58;18;16;
51052;PMS5003;37093;37.716;-122.060;2023-09-19T15:37:26;23;16;
51052;PMS5003;37093;37.716;-122.060;2023-09-19T15:39:55;22;17;
51052;PMS5003;37093;37.716;-122.060;2023-09-19T15:42:23;17;16;
51052;PMS5003;37093;37.716;-122.060;2023-09-19T15:44:51;18;17;
51052;PMS5003;37093;37.716;-122.060;2023-09-19T15:47:19;30;17;
51052;PMS5003;37093;37.716;-122.060;2023-09-19T15:49:47;24;19;
51052;PMS5003;37093;37.716;-122.060;2023-09-19T15:52:17;23;19;
51052;PMS5003;37093;37.716;-122.060;2023-09-19T15:54:45;18;17;
51052;PMS5003;37093;37.716;-122.060;2023-09-19T15:57:14;23;19;
51052;PMS5003;37093;37.716;-122.060;2023-09-19T15:59:42;24;16;
51052;PMS5003;37093;37.716;-122.060;2023-09-19T16:02:10;21;16;
51052;PMS5003;37093;37.716;-122.060;2023-09-19T16:04:39;19;18;
51052;PMS5003;37093;37.716;-122.060;2023-09-19T16:07:07;22;18;
51052;PMS5003;37093;37.716;-122.060;2023-09-19T16:09:36;14;14;
51052;PMS5003;37093;37.716;-122.060;2023-09-19T16:12:04;23;16;
51052;PMS5003;37093;37.716;-122.060;2023-09-19T16:14:34;17;15;
51052;PMS5003;37093;37.716;-122.060;2023-09-19T16:17:02;22;17;
51052;PMS5003;37093;37.716;-122.060;2023-09-19T16:19:31;26;18;